Time;durP1;ratioP1;P1;durP2;ratioP2;P2;SDS_P1;SDS_P2;PMS_P1;PMS_P2;Temp;Humidity;BMP_temperature;BMP_pressure;BME280_temperature;BME280_humidity;BME280_pressure;Samples;Min_cycle;Max_cycle;Signal;HPM_P1;HPM_P2
2020/12/01 00:00:13;;;;;;;34.88;19.00;;;23.40;27.30;;;;;;6259235;27;83922;-66
2020/12/01 00:03:14;;;;;;;34.38;19.30;;;23.40;27.30;;;;;;6255010;27;83233;-65
2020/12/01 00:06:14;;;;;;;33.45;18.50;;;23.40;27.20;;;;;;6258275;27;85283;-67
2020/12/01 00:09:15;;;;;;;35.00;20.85;;;23.40;27.10;;;;;;6253493;27;84510;-70
2020/12/01 00:12:16;;;;;;;35.83;20.25;;;23.40;27.20;;;;;;6270669;27;83346;-66
2020/12/01 00:15:16;;;;;;;33.70;18.90;;;23.40;27.00;;;;;;6254576;27;83649;-66
2020/12/01 00:18:17;;;;;;;31.23;17.77;;;23.30;27.10;;;;;;6270150;27;83267;-64
2020/12/01 00:21:17;;;;;;;37.83;20.02;;;23.30;27.10;;;;;;6268677;27;83943;-64
2020/12/01 00:24:18;;;;;;;32.17;19.10;;;23.30;27.00;;;;;;6264059;27;83933;-64
2020/12/01 00:27:18;;;;;;;34.83;18.50;;;23.30;27.10;;;;;;6262474;27;83453;-63
2020/12/01 00:30:19;;;;;;;30.98;18.92;;;23.30;27.00;;;;;;6271135;27;83442;-64
2020/12/01 00:33:19;;;;;;;34.97;19.25;;;23.30;27.10;;;;;;6274893;27;84341;-64
2020/12/01 00:36:20;;;;;;;31.42;18.45;;;23.30;27.00;;;;;;6276008;27;82912;-64
2020/12/01 00:39:21;;;;;;;33.20;18.77;;;23.30;27.10;;;;;;6265331;27;83789;-64
2020/12/01 00:42:21;;;;;;;33.30;18.48;;;23.40;27.00;;;;;;6268655;27;84781;-64
2020/12/01 00:45:22;;;;;;;34.40;18.67;;;23.30;27.10;;;;;;6272874;27;85959;-64
2020/12/01 00:48:22;;;;;;;31.70;18.67;;;23.30;27.00;;;;;;6271208;27;85845;-65
2020/12/01 00:51:23;;;;;;;36.22;19.52;;;23.30;27.00;;;;;;6262871;27;85830;-65
2020/12/01 00:54:24;;;;;;;30.98;17.90;;;23.30;26.80;;;;;;6259722;27;85703;-65
2020/12/01 00:57:25;;;;;;;34.80;19.35;;;23.30;26.90;;;;;;6276983;27;84592;-65
2020/12/01 01:00:26;;;;;;;36.35;19.23;;;23.30;27.00;;;;;;6271421;27;85979;-65
2020/12/01 01:03:49;;;;;;;29.67;17.88;;;23.30;26.90;;;;;;6260797;27;85934;-64
2020/12/01 01:06:50;;;;;;;34.58;18.98;;;23.30;26.90;;;;;;6261225;27;82997;-65
2020/12/01 01:09:50;;;;;;;34.03;18.17;;;23.30;26.80;;;;;;6261570;27;83312;-64
2020/12/01 01:12:51;;;;;;;33.40;18.20;;;23.30;27.00;;;;;;6274104;27;83450;-65
2020/12/01 01:15:51;;;;;;;36.60;18.30;;;23.30;27.00;;;;;;6262586;27;83294;-64
2020/12/01 01:18:52;;;;;;;31.58;18.17;;;23.30;27.00;;;;;;6263040;27;85521;-62
2020/12/01 01:21:52;;;;;;;29.77;17.13;;;23.30;26.90;;;;;;6282260;27;83252;-64
2020/12/01 01:24:53;;;;;;;34.53;17.90;;;23.30;26.90;;;;;;6253008;27;83474;-64
2020/12/01 01:27:54;;;;;;;31.52;17.55;;;23.30;27.00;;;;;;6272154;27;83076;-64
2020/12/01 01:30:54;;;;;;;31.33;17.25;;;23.30;26.80;;;;;;6269903;27;83001;-64
2020/12/01 01:33:55;;;;;;;29.63;16.98;;;23.30;26.90;;;;;;6272071;27;83733;-65
2020/12/01 01:36:55;;;;;;;31.83;17.23;;;23.30;26.90;;;;;;6274452;27;84711;-63
2020/12/01 01:39:56;;;;;;;31.33;16.95;;;23.30;26.90;;;;;;6275718;27;83374;-63
2020/12/01 01:42:56;;;;;;;30.60;16.85;;;23.30;27.00;;;;;;6274520;27;83532;-65
2020/12/01 01:45:57;;;;;;;26.77;15.43;;;23.30;26.70;;;;;;6270802;27;83140;-64
2020/12/01 01:48:57;;;;;;;30.38;16.23;;;23.30;26.90;;;;;;6270101;27;83906;-66
2020/12/01 01:51:58;;;;;;;31.58;16.63;;;23.30;26.90;;;;;;6272812;27;84373;-64
2020/12/01 01:54:59;;;;;;;27.75;15.60;;;23.30;26.90;;;;;;6269881;27;83971;-64
2020/12/01 01:57:59;;;;;;;28.02;16.35;;;23.30;26.90;;;;;;6269223;27;83546;-66
2020/12/01 02:01:00;;;;;;;25.42;15.38;;;23.30;26.70;;;;;;6274911;27;91360;-64
2020/12/01 02:04:00;;;;;;;26.08;14.75;;;23.30;26.90;;;;;;6265560;27;83654;-64
2020/12/01 02:07:01;;;;;;;22.92;14.65;;;23.30;26.70;;;;;;6266613;27;83727;-64
2020/12/01 02:10:01;;;;;;;26.15;15.20;;;23.30;26.60;;;;;;6254886;27;83446;-66
2020/12/01 02:13:02;;;;;;;26.92;14.57;;;23.30;26.80;;;;;;6272259;27;83515;-64
2020/12/01 02:16:02;;;;;;;25.30;14.70;;;23.30;26.80;;;;;;6251238;27;83353;-64
2020/12/01 02:19:03;;;;;;;23.42;14.43;;;23.30;26.70;;;;;;6266318;27;83677;-62
2020/12/01 02:22:03;;;;;;;22.17;14.52;;;23.30;26.60;;;;;;6265093;27;84000;-66
2020/12/01 02:25:04;;;;;;;25.20;14.63;;;23.30;26.80;;;;;;6255378;27;83833;-64
2020/12/01 02:28:04;;;;;;;19.65;13.15;;;23.20;26.70;;;;;;6256486;27;83569;-64
2020/12/01 02:31:05;;;;;;;22.58;13.50;;;23.30;26.60;;;;;;6254840;27;86489;-64
2020/12/01 02:34:05;;;;;;;22.95;13.23;;;23.20;26.50;;;;;;6256368;27;83796;-64
2020/12/01 02:37:06;;;;;;;23.13;13.35;;;23.20;27.00;;;;;;6248605;27;83157;-64
2020/12/01 02:40:06;;;;;;;23.60;13.63;;;23.20;26.40;;;;;;6261708;27;83228;-64
2020/12/01 02:43:07;;;;;;;22.73;13.40;;;23.20;26.50;;;;;;6255533;27;83921;-64
2020/12/01 02:46:08;;;;;;;25.60;13.48;;;23.20;26.50;;;;;;6269703;27;84249;-65
2020/12/01 02:49:08;;;;;;;20.60;12.80;;;23.20;26.30;;;;;;6274615;27;83350;-65
2020/12/01 02:52:09;;;;;;;21.67;12.77;;;23.20;26.30;;;;;;6260786;27;82991;-65
2020/12/01 02:55:09;;;;;;;21.40;12.75;;;23.20;26.30;;;;;;6272748;27;83954;-65
2020/12/01 02:58:10;;;;;;;22.20;12.18;;;23.20;26.20;;;;;;6269130;27;83666;-64
2020/12/01 03:01:10;;;;;;;23.33;13.15;;;23.10;26.00;;;;;;6263693;27;83266;-66
2020/12/01 03:04:11;;;;;;;21.67;12.25;;;23.20;26.10;;;;;;6269964;27;83205;-65
2020/12/01 03:07:11;;;;;;;19.17;11.48;;;23.10;26.10;;;;;;6270246;27;84455;-64
2020/12/01 03:10:12;;;;;;;20.10;12.02;;;23.10;26.00;;;;;;6272413;27;83005;-64
2020/12/01 03:13:13;;;;;;;21.40;11.48;;;23.10;26.10;;;;;;6267045;27;84744;-66
2020/12/01 03:16:13;;;;;;;16.92;10.95;;;23.10;26.00;;;;;;6262556;27;84077;-63
2020/12/01 03:19:14;;;;;;;19.55;11.70;;;23.10;26.10;;;;;;6263094;27;83367;-64
2020/12/01 03:22:14;;;;;;;18.30;10.95;;;23.10;26.20;;;;;;6268440;27;83602;-64
2020/12/01 03:25:15;;;;;;;17.33;10.75;;;23.10;26.20;;;;;;6265821;27;83463;-65
2020/12/01 03:28:15;;;;;;;17.63;11.25;;;23.10;25.90;;;;;;6261396;27;85164;-65
2020/12/01 03:31:16;;;;;;;18.85;10.65;;;23.10;26.20;;;;;;6259764;27;83325;-64
2020/12/01 03:34:17;;;;;;;17.25;10.85;;;23.10;26.00;;;;;;6267282;27;83850;-65
2020/12/01 03:37:17;;;;;;;16.15;10.35;;;23.10;25.90;;;;;;6264696;27;83576;-64
2020/12/01 03:40:18;;;;;;;17.00;9.65;;;23.10;25.90;;;;;;6272952;27;83872;-64
2020/12/01 03:43:18;;;;;;;16.52;10.43;;;23.10;25.80;;;;;;6270739;27;82914;-63
2020/12/01 03:46:19;;;;;;;17.20;10.45;;;23.10;25.80;;;;;;6261383;27;83009;-63
2020/12/01 03:49:20;;;;;;;14.90;9.32;;;23.00;25.80;;;;;;6272513;27;89476;-63
2020/12/01 03:52:20;;;;;;;14.43;9.52;;;23.00;25.80;;;;;;6276527;27;82847;-65
2020/12/01 03:55:21;;;;;;;15.20;9.25;;;23.00;25.80;;;;;;6271631;27;80824;-63
2020/12/01 03:58:21;;;;;;;15.10;9.85;;;23.00;25.90;;;;;;6269055;27;81426;-64
2020/12/01 04:01:22;;;;;;;12.95;8.85;;;23.00;25.70;;;;;;6268221;27;80648;-64
2020/12/01 04:04:28;;;;;;;16.42;10.00;;;23.00;25.80;;;;;;6276097;27;80805;-63
2020/12/01 04:07:29;;;;;;;16.98;9.55;;;23.00;25.70;;;;;;6272692;27;83333;-64
2020/12/01 04:10:29;;;;;;;15.32;9.43;;;23.00;25.70;;;;;;6260088;27;85042;-64
2020/12/01 04:13:31;;;;;;;16.52;9.63;;;23.00;25.90;;;;;;6257138;27;80912;-64
2020/12/01 04:16:31;;;;;;;15.85;9.30;;;23.00;25.50;;;;;;6259669;27;80632;-64
2020/12/01 04:19:32;;;;;;;15.63;9.38;;;23.00;25.60;;;;;;6260488;27;81267;-64
2020/12/01 04:22:32;;;;;;;13.90;9.10;;;23.00;25.60;;;;;;6276155;27;81545;-65
2020/12/01 04:25:33;;;;;;;15.73;8.77;;;22.90;25.60;;;;;;6269655;27;81120;-65
2020/12/01 04:28:34;;;;;;;13.60;8.00;;;22.90;25.60;;;;;;6248012;27;81327;-67
2020/12/01 04:31:34;;;;;;;16.08;8.77;;;23.00;25.40;;;;;;6255026;27;83187;-65
2020/12/01 04:34:35;;;;;;;12.82;8.10;;;23.00;25.60;;;;;;6247835;27;83127;-65
2020/12/01 04:37:35;;;;;;;15.27;8.98;;;23.00;25.40;;;;;;6261145;27;81483;-65
2020/12/01 04:40:36;;;;;;;14.27;8.77;;;23.00;25.50;;;;;;6261609;27;80600;-65
2020/12/01 04:43:36;;;;;;;12.77;8.23;;;23.00;25.40;;;;;;6270660;27;81647;-63
2020/12/01 04:46:37;;;;;;;13.00;8.38;;;23.00;25.50;;;;;;6274720;27;81782;-64
2020/12/01 04:49:37;;;;;;;13.18;8.45;;;23.00;25.50;;;;;;6274179;27;81902;-64
2020/12/01 04:52:38;;;;;;;13.40;8.38;;;23.00;25.60;;;;;;6260398;27;80703;-65
2020/12/01 04:55:39;;;;;;;13.10;9.02;;;23.00;25.70;;;;;;6262235;27;80928;-66
2020/12/01 04:58:39;;;;;;;13.15;8.68;;;23.10;25.80;;;;;;6271854;27;81317;-67
2020/12/01 05:01:40;;;;;;;12.10;8.20;;;23.10;25.80;;;;;;6263783;27;83359;-66
2020/12/01 05:04:40;;;;;;;14.18;7.78;;;23.10;25.80;;;;;;6273790;27;80177;-65
2020/12/01 05:07:46;;;;;;;15.38;9.40;;;23.10;25.80;;;;;;6273790;27;83473;-65
2020/12/01 05:10:47;;;;;;;10.50;7.50;;;23.10;25.90;;;;;;6271976;27;80688;-65
2020/12/01 05:13:48;;;;;;;13.38;7.88;;;23.10;25.90;;;;;;6273036;27;82150;-65
2020/12/01 05:16:48;;;;;;;10.10;7.20;;;23.10;25.70;;;;;;6278757;27;80906;-65
2020/12/01 05:19:49;;;;;;;10.30;7.35;;;23.10;26.00;;;;;;6269592;27;80732;-65
2020/12/01 05:22:50;;;;;;;14.50;7.97;;;23.10;26.10;;;;;;6272584;27;84150;-65
2020/12/01 05:25:50;;;;;;;12.77;7.85;;;23.10;25.90;;;;;;6260914;27;81485;-65
2020/12/01 05:28:51;;;;;;;11.32;7.88;;;23.10;26.10;;;;;;6263660;27;80928;-64
2020/12/01 05:31:51;;;;;;;10.70;7.43;;;23.10;26.00;;;;;;6271329;27;81024;-65
2020/12/01 05:34:52;;;;;;;12.60;7.68;;;23.10;25.90;;;;;;6269956;27;81545;-65
2020/12/01 05:37:52;;;;;;;11.98;7.75;;;23.20;26.00;;;;;;6267490;27;80703;-65
2020/12/01 05:40:53;;;;;;;11.60;7.43;;;23.10;25.80;;;;;;6265851;27;81588;-64
2020/12/01 05:43:53;;;;;;;14.18;8.43;;;23.20;26.00;;;;;;6269878;27;81045;-64
2020/12/01 05:46:54;;;;;;;13.73;8.38;;;23.20;25.80;;;;;;6268540;27;80669;-64
2020/12/01 05:49:55;;;;;;;12.77;7.55;;;23.20;26.00;;;;;;6275206;27;80203;-65
2020/12/01 05:52:55;;;;;;;14.27;7.43;;;23.20;26.00;;;;;;6276184;27;86517;-54
2020/12/01 05:55:56;;;;;;;12.77;7.50;;;23.20;25.70;;;;;;6277982;27;85790;-65
2020/12/01 05:58:57;;;;;;;11.63;7.40;;;23.10;25.80;;;;;;6267388;27;83935;-64
2020/12/01 06:01:57;;;;;;;12.27;7.63;;;23.20;25.90;;;;;;6273395;27;80650;-64
2020/12/01 06:04:58;;;;;;;12.07;7.78;;;23.10;25.80;;;;;;6267012;27;80573;-64
2020/12/01 06:07:58;;;;;;;10.65;7.18;;;23.20;25.90;;;;;;6276855;27;80730;-66
2020/12/01 06:10:59;;;;;;;11.40;7.70;;;23.10;26.00;;;;;;6278540;27;80846;-65
2020/12/01 06:13:59;;;;;;;11.38;7.30;;;23.10;26.20;;;;;;6269695;27;81410;-66
2020/12/01 06:17:00;;;;;;;9.75;6.72;;;23.10;26.40;;;;;;6261849;27;83904;-65
2020/12/01 06:20:00;;;;;;;9.90;6.72;;;23.20;26.60;;;;;;6265639;27;80550;-63
2020/12/01 06:23:01;;;;;;;11.95;6.55;;;23.20;27.00;;;;;;6277427;27;81054;-66
2020/12/01 06:26:02;;;;;;;11.13;6.85;;;23.20;27.10;;;;;;6272997;27;82695;-63
2020/12/01 06:29:02;;;;;;;11.38;7.28;;;23.20;27.50;;;;;;6264661;27;81421;-65
2020/12/01 06:32:03;;;;;;;13.88;7.38;;;23.20;27.30;;;;;;6265662;27;80757;-65
2020/12/01 06:35:03;;;;;;;12.07;7.55;;;23.20;27.50;;;;;;6272557;27;80763;-63
2020/12/01 06:38:04;;;;;;;10.27;6.72;;;23.20;27.60;;;;;;6260660;27;81997;-64
2020/12/01 06:41:04;;;;;;;13.80;7.97;;;23.30;27.90;;;;;;6264062;27;80322;-65
2020/12/01 06:44:05;;;;;;;15.70;8.38;;;23.30;27.80;;;;;;6265748;27;80756;-64
2020/12/01 06:47:06;;;;;;;12.00;7.28;;;23.30;27.80;;;;;;6276341;27;81534;-60
2020/12/01 06:50:06;;;;;;;14.48;7.55;;;23.40;28.10;;;;;;6278055;27;80922;-61
2020/12/01 06:53:07;;;;;;;10.50;7.10;;;23.40;28.50;;;;;;6274060;27;80708;-66
2020/12/01 06:56:07;;;;;;;13.32;6.88;;;23.40;28.50;;;;;;6267566;27;80584;-63
2020/12/01 06:59:08;;;;;;;11.98;7.65;;;23.40;28.60;;;;;;6269017;27;80808;-59
2020/12/01 07:02:08;;;;;;;12.98;7.63;;;23.50;28.90;;;;;;6275291;27;80321;-57
2020/12/01 07:05:09;;;;;;;13.60;6.90;;;23.50;29.20;;;;;;6269291;27;80482;-59
2020/12/01 07:08:10;;;;;;;13.15;7.25;;;23.60;29.40;;;;;;6262519;27;80254;-63
2020/12/01 07:11:10;;;;;;;13.35;7.55;;;23.60;29.60;;;;;;6264467;27;80321;-65
2020/12/01 07:14:11;;;;;;;15.77;8.60;;;23.60;29.50;;;;;;6262985;27;83486;-63
2020/12/01 07:17:11;;;;;;;13.43;7.45;;;23.60;29.30;;;;;;6264753;27;81050;-61
2020/12/01 07:20:12;;;;;;;13.60;7.82;;;23.70;29.10;;;;;;6262151;27;80108;-63
2020/12/01 07:23:12;;;;;;;13.52;7.40;;;23.70;28.90;;;;;;6275613;27;80953;-61
2020/12/01 07:26:13;;;;;;;16.52;7.47;;;23.60;28.50;;;;;;6264903;27;81573;-63
2020/12/01 07:29:13;;;;;;;14.85;8.00;;;23.60;28.20;;;;;;6267337;27;80181;-62
2020/12/01 07:32:14;;;;;;;14.77;7.93;;;23.70;27.70;;;;;;6268234;27;80310;-64
2020/12/01 07:35:15;;;;;;;15.40;8.45;;;23.70;27.60;;;;;;6268159;27;81174;-63
2020/12/01 07:38:15;;;;;;;13.10;8.05;;;23.60;27.70;;;;;;6265005;27;80452;-65
2020/12/01 07:41:22;;;;;;;14.50;8.23;;;23.70;27.60;;;;;;6271082;27;81579;-65
2020/12/01 07:44:22;;;;;;;12.68;8.48;;;23.70;27.10;;;;;;6268953;27;81385;-63
2020/12/01 07:47:23;;;;;;;11.30;7.35;;;23.70;27.10;;;;;;6274383;27;81597;-65
2020/12/01 07:50:24;;;;;;;14.38;7.50;;;23.80;27.20;;;;;;6272969;27;80049;-63
2020/12/01 07:53:24;;;;;;;12.18;7.78;;;23.80;27.40;;;;;;6276536;27;81114;-64
2020/12/01 07:56:25;;;;;;;17.67;8.63;;;23.80;27.60;;;;;;6274451;27;87414;-64
2020/12/01 07:59:25;;;;;;;18.15;8.57;;;23.80;27.80;;;;;;6268401;27;80771;-64
2020/12/01 08:02:26;;;;;;;14.27;7.88;;;23.80;28.00;;;;;;6279469;27;81715;-63
2020/12/01 08:05:26;;;;;;;14.07;8.07;;;23.80;28.10;;;;;;6268126;27;80660;-63
2020/12/01 08:08:27;;;;;;;14.05;7.85;;;23.90;28.10;;;;;;6263250;27;81096;-66
2020/12/01 08:11:28;;;;;;;14.20;7.50;;;23.80;28.00;;;;;;6270335;27;80793;-65
2020/12/01 08:14:28;;;;;;;13.90;7.97;;;23.90;27.90;;;;;;6268686;27;81304;-64
2020/12/01 08:17:29;;;;;;;15.98;7.68;;;23.90;27.70;;;;;;6276088;27;81834;-64
2020/12/01 08:20:29;;;;;;;12.82;8.07;;;23.90;27.90;;;;;;6272668;27;80904;-67
2020/12/01 08:23:30;;;;;;;12.73;7.85;;;23.90;27.90;;;;;;6276309;27;82887;-67
2020/12/01 08:26:31;;;;;;;13.40;7.82;;;24.00;27.70;;;;;;6272092;27;80910;-66
2020/12/01 08:29:32;;;;;;;12.93;9.13;;;24.00;27.50;;;;;;6260065;27;80675;-68
2020/12/01 08:32:32;;;;;;;16.13;8.40;;;24.10;28.60;;;;;;6256806;27;81834;-65
2020/12/01 08:35:33;;;;;;;16.35;9.38;;;24.10;28.60;;;;;;6273507;27;81554;-67
2020/12/01 08:38:33;;;;;;;17.88;8.77;;;24.10;28.20;;;;;;6276194;27;80283;-64
2020/12/01 08:41:34;;;;;;;13.90;7.65;;;24.10;28.70;;;;;;6274910;27;80737;-66
2020/12/01 08:44:35;;;;;;;12.85;7.55;;;24.20;28.50;;;;;;6259776;27;81140;-64
2020/12/01 08:47:35;;;;;;;18.52;8.32;;;24.20;28.90;;;;;;6266395;27;81153;-64
2020/12/01 08:50:36;;;;;;;15.43;8.27;;;24.30;28.20;;;;;;6261320;27;80574;-64
2020/12/01 08:53:37;;;;;;;15.52;8.07;;;24.30;28.40;;;;;;6274125;27;80887;-67
2020/12/01 08:56:38;;;;;;;12.77;7.47;;;24.40;28.40;;;;;;6264691;27;80598;-66
2020/12/01 08:59:39;;;;;;;15.15;7.65;;;24.40;28.30;;;;;;6273367;27;80326;-66
2020/12/01 09:02:39;;;;;;;14.40;7.80;;;24.50;28.30;;;;;;6263456;27;80593;-65
2020/12/01 09:05:40;;;;;;;29.95;9.60;;;24.50;28.20;;;;;;6264707;27;81607;-64
2020/12/01 09:08:47;;;;;;;17.90;8.18;;;24.60;29.20;;;;;;6285084;27;80609;-64
2020/12/01 09:15:14;;;;;;;23.00;8.32;;;24.70;30.50;;;;;;6274306;27;80299;-65
2020/12/01 09:24:34;;;;;;;22.58;10.02;;;24.80;30.00;;;;;;6275180;27;83721;-66
2020/12/01 09:27:34;;;;;;;25.48;9.77;;;24.80;29.90;;;;;;6269139;27;84137;-68
2020/12/01 09:30:35;;;;;;;18.33;9.13;;;24.90;30.10;;;;;;6273675;27;84666;-66
2020/12/01 09:33:36;;;;;;;21.65;9.18;;;24.90;30.00;;;;;;6277062;27;80637;-65
2020/12/01 09:36:36;;;;;;;18.85;8.73;;;24.90;29.80;;;;;;6278096;27;82246;-64
2020/12/01 09:39:37;;;;;;;18.60;8.25;;;25.00;29.60;;;;;;6270441;27;80414;-63
2020/12/01 09:42:39;;;;;;;20.45;8.00;;;25.00;29.60;;;;;;6267826;27;81794;-64
2020/12/01 09:45:42;;;;;;;26.33;9.02;;;25.10;29.50;;;;;;6273019;27;83395;-66
2020/12/01 09:48:47;;;;;;;16.85;7.57;;;25.10;29.40;;;;;;6258168;27;81503;-66
2020/12/01 09:51:57;;;;;;;17.48;8.13;;;25.10;29.50;;;;;;6273938;27;83063;-65
2020/12/01 09:55:19;;;;;;;16.15;8.13;;;25.20;30.20;;;;;;6259452;27;80824;-64
2020/12/01 10:05:22;;;;;;;14.55;8.18;;;25.30;30.30;;;;;;6275424;27;81377;-62
2020/12/01 10:08:48;;;;;;;14.90;7.65;;;25.30;30.20;;;;;;6260042;27;84674;-62
2020/12/01 10:34:58;;;;;;;11.55;7.70;;;25.60;29.50;;;;;;6269896;27;82414;-63
2020/12/01 10:37:59;;;;;;;11.68;7.35;;;25.70;29.80;;;;;;6277584;27;86150;-64
2020/12/01 10:40:59;;;;;;;11.27;7.10;;;25.70;29.90;;;;;;6278609;27;80885;-64
2020/12/01 10:44:00;;;;;;;14.82;8.00;;;25.70;29.90;;;;;;6271486;27;88520;-64
2020/12/01 10:47:01;;;;;;;14.27;7.50;;;25.70;29.90;;;;;;6271808;27;84445;-60
2020/12/01 10:50:01;;;;;;;14.60;8.05;;;25.70;30.40;;;;;;6276256;27;80466;-63
2020/12/01 10:53:02;;;;;;;12.80;7.80;;;25.70;30.40;;;;;;6276100;27;81407;-67
2020/12/01 10:56:02;;;;;;;13.05;6.97;;;25.80;31.40;;;;;;6275352;27;80671;-61
2020/12/01 10:59:03;;;;;;;15.95;7.28;;;25.80;31.70;;;;;;6268413;27;80640;-65
2020/12/01 11:02:03;;;;;;;13.15;7.53;;;25.90;31.60;;;;;;6272810;27;80991;-64
2020/12/01 11:05:04;;;;;;;14.35;7.22;;;25.90;30.60;;;;;;6274952;27;80626;-64
2020/12/01 11:08:04;;;;;;;13.68;7.32;;;26.00;30.20;;;;;;6275281;27;81337;-65
2020/12/01 11:11:05;;;;;;;12.63;7.70;;;26.00;30.10;;;;;;6268916;27;83052;-61
2020/12/01 11:14:05;;;;;;;16.88;7.50;;;26.10;30.20;;;;;;6275789;27;80715;-63
2020/12/01 11:17:06;;;;;;;11.98;7.07;;;26.10;30.50;;;;;;6268222;27;80494;-62
2020/12/01 11:20:06;;;;;;;10.85;6.63;;;26.10;30.60;;;;;;6272981;27;81627;-62
2020/12/01 11:23:07;;;;;;;18.58;7.57;;;26.10;30.70;;;;;;6269654;27;80856;-63
2020/12/01 11:26:08;;;;;;;13.77;7.28;;;26.10;30.80;;;;;;6277529;27;81763;-65
2020/12/01 11:29:08;;;;;;;11.52;7.00;;;26.10;31.10;;;;;;6276720;27;80609;-65
2020/12/01 11:32:09;;;;;;;14.15;7.72;;;26.10;31.10;;;;;;6267522;27;80410;-65
2020/12/01 11:35:09;;;;;;;14.25;7.70;;;26.20;31.00;;;;;;6276512;27;80753;-66
2020/12/01 11:38:10;;;;;;;18.10;8.13;;;26.20;31.00;;;;;;6273851;27;80493;-64
2020/12/01 11:41:11;;;;;;;14.05;8.43;;;26.20;31.00;;;;;;6261838;27;81527;-64
2020/12/01 11:44:13;;;;;;;14.50;7.38;;;26.30;30.80;;;;;;6263096;27;81714;-65
2020/12/01 11:47:13;;;;;;;13.23;8.50;;;26.30;30.90;;;;;;6274528;27;80990;-66
2020/12/01 11:50:14;;;;;;;12.32;7.35;;;26.30;30.90;;;;;;6274867;27;80352;-66
2020/12/01 11:53:15;;;;;;;12.48;7.57;;;26.30;30.80;;;;;;6260047;27;83840;-65
2020/12/01 11:56:15;;;;;;;11.70;8.07;;;26.30;30.40;;;;;;6260596;27;81379;-65
2020/12/01 11:59:16;;;;;;;12.02;7.43;;;26.30;30.60;;;;;;6275419;27;80627;-64
2020/12/01 12:02:16;;;;;;;17.85;8.23;;;26.30;30.20;;;;;;6259433;27;81301;-62
2020/12/01 12:05:17;;;;;;;13.05;7.68;;;26.30;30.40;;;;;;6257124;27;80495;-61
2020/12/01 12:08:17;;;;;;;12.68;7.38;;;26.20;30.60;;;;;;6259444;27;81587;-64
2020/12/01 12:11:18;;;;;;;15.98;7.95;;;26.20;30.60;;;;;;6258018;27;80599;-68
2020/12/01 12:14:18;;;;;;;11.18;7.05;;;26.10;30.20;;;;;;6274539;27;80610;-69
2020/12/01 12:17:19;;;;;;;12.00;7.03;;;26.10;30.20;;;;;;6269065;27;83213;-70
2020/12/01 12:20:20;;;;;;;12.50;6.93;;;26.00;30.00;;;;;;6263088;27;83043;-69
2020/12/01 12:23:21;;;;;;;13.57;7.57;;;26.00;29.80;;;;;;6274977;27;81087;-69
2020/12/01 12:26:21;;;;;;;12.38;7.90;;;26.00;29.60;;;;;;6278110;27;80668;-69
2020/12/01 12:29:22;;;;;;;18.50;7.88;;;25.90;29.40;;;;;;6279157;27;80655;-67
2020/12/01 12:32:22;;;;;;;11.77;6.93;;;25.90;29.30;;;;;;6273531;27;80659;-67
2020/12/01 12:35:23;;;;;;;11.80;7.20;;;25.90;29.30;;;;;;6273160;27;81793;-69
2020/12/01 12:38:23;;;;;;;9.80;6.57;;;25.80;29.40;;;;;;6269820;27;81719;-69
2020/12/01 12:41:24;;;;;;;10.05;7.00;;;25.80;29.50;;;;;;6275767;27;80502;-69
2020/12/01 12:44:24;;;;;;;10.02;6.35;;;25.80;29.50;;;;;;6279037;27;80705;-70
2020/12/01 12:47:25;;;;;;;12.48;8.05;;;25.80;29.60;;;;;;6278452;27;86499;-69
2020/12/01 12:50:25;;;;;;;12.88;7.32;;;25.80;29.30;;;;;;6273745;27;81578;-68
2020/12/01 12:53:26;;;;;;;11.85;7.07;;;25.80;29.30;;;;;;6269242;27;80703;-69
2020/12/01 12:56:27;;;;;;;11.73;7.60;;;25.70;29.20;;;;;;6266883;27;80398;-72
2020/12/01 12:59:27;;;;;;;13.05;7.63;;;25.70;29.30;;;;;;6271386;27;80459;-68
2020/12/01 13:02:28;;;;;;;12.98;7.88;;;25.70;29.10;;;;;;6264250;27;80630;-69
2020/12/01 13:05:29;;;;;;;11.98;7.55;;;25.70;28.80;;;;;;6282311;27;81824;-67
2020/12/01 13:08:30;;;;;;;11.63;7.68;;;25.70;28.90;;;;;;6272714;27;80956;-70
2020/12/01 13:11:30;;;;;;;13.02;7.75;;;25.70;29.00;;;;;;6277361;27;81892;-68
2020/12/01 13:14:31;;;;;;;16.80;8.65;;;25.70;28.80;;;;;;6276253;27;81074;-68
2020/12/01 13:17:31;;;;;;;12.80;8.15;;;25.70;28.20;;;;;;6278735;27;81080;-69
2020/12/01 13:20:32;;;;;;;17.60;8.00;;;25.60;28.70;;;;;;6266720;27;80665;-69
2020/12/01 13:23:32;;;;;;;12.27;7.75;;;25.60;28.70;;;;;;6289084;27;81188;-69
2020/12/01 13:26:33;;;;;;;19.17;9.07;;;25.50;28.70;;;;;;6269545;27;82053;-69
2020/12/01 13:29:34;;;;;;;14.05;8.80;;;25.50;28.50;;;;;;6277892;27;80352;-70
2020/12/01 13:32:34;;;;;;;12.18;7.93;;;25.50;28.90;;;;;;6271508;27;80625;-68
2020/12/01 13:35:35;;;;;;;14.50;9.20;;;25.50;28.70;;;;;;6261318;27;80624;-71
2020/12/01 13:38:35;;;;;;;18.63;9.68;;;25.50;27.60;;;;;;6264645;27;80964;-68
2020/12/01 13:41:36;;;;;;;13.57;8.85;;;25.50;28.20;;;;;;6267022;27;80902;-66
2020/12/01 13:44:36;;;;;;;15.02;9.18;;;25.50;28.00;;;;;;6269693;27;81744;-67
2020/12/01 13:47:38;;;;;;;15.35;9.68;;;25.50;27.60;;;;;;6271993;27;80632;-67
2020/12/01 13:50:39;;;;;;;14.95;8.75;;;25.40;27.20;;;;;;6253906;27;81831;-67
2020/12/01 13:53:39;;;;;;;15.57;9.63;;;25.10;27.00;;;;;;6271970;27;80793;-67
2020/12/01 13:56:40;;;;;;;17.25;10.00;;;25.40;27.30;;;;;;6272886;27;87153;-65
2020/12/01 13:59:40;;;;;;;13.75;9.57;;;25.40;27.80;;;;;;6267316;27;83996;-66
2020/12/01 14:02:41;;;;;;;13.15;9.30;;;25.30;27.80;;;;;;6275188;27;81684;-65
2020/12/01 14:05:42;;;;;;;18.73;10.23;;;25.30;27.90;;;;;;6272951;27;80975;-65
2020/12/01 14:08:42;;;;;;;16.73;9.88;;;25.20;28.10;;;;;;6273520;27;83293;-65
2020/12/01 14:11:43;;;;;;;16.23;10.05;;;25.20;28.40;;;;;;6263347;27;81842;-63
2020/12/01 14:14:43;;;;;;;19.95;10.20;;;25.20;29.20;;;;;;6269630;27;83737;-65
2020/12/01 14:17:44;;;;;;;17.63;9.82;;;25.10;30.00;;;;;;6256129;27;85555;-66
2020/12/01 14:20:44;;;;;;;15.10;9.82;;;25.10;30.30;;;;;;6270787;27;81929;-66
2020/12/01 14:23:45;;;;;;;20.17;9.93;;;25.00;31.10;;;;;;6264629;27;83742;-66
2020/12/01 14:26:46;;;;;;;18.15;10.82;;;25.00;31.60;;;;;;6277706;27;81475;-65
2020/12/01 14:29:46;;;;;;;19.67;10.77;;;24.90;32.00;;;;;;6268718;27;83512;-66
2020/12/01 14:32:47;;;;;;;17.50;10.50;;;24.90;31.80;;;;;;6262601;27;82977;-67
2020/12/01 14:35:47;;;;;;;18.90;11.57;;;24.80;31.80;;;;;;6258354;27;83655;-66
2020/12/01 14:38:48;;;;;;;19.52;11.00;;;24.80;32.00;;;;;;6259421;27;83758;-66
2020/12/01 14:41:48;;;;;;;18.70;10.95;;;24.80;32.00;;;;;;6256540;27;82962;-66
2020/12/01 14:44:49;;;;;;;17.63;10.15;;;24.70;31.90;;;;;;6262664;27;83336;-66
2020/12/01 14:47:50;;;;;;;24.65;12.07;;;24.70;31.90;;;;;;6271889;27;83633;-65
2020/12/01 14:50:50;;;;;;;20.63;11.60;;;24.70;31.40;;;;;;6272186;27;85975;-66
2020/12/01 14:53:51;;;;;;;20.65;11.00;;;24.60;31.20;;;;;;6264988;27;84757;-66
2020/12/01 14:56:51;;;;;;;19.50;11.85;;;24.60;31.10;;;;;;6273757;27;84050;-65
2020/12/01 14:59:52;;;;;;;21.02;11.63;;;24.50;31.00;;;;;;6266474;27;83760;-65
2020/12/01 15:02:52;;;;;;;25.33;12.60;;;24.50;31.10;;;;;;6273892;27;83698;-66
2020/12/01 15:05:53;;;;;;;23.48;13.07;;;24.50;30.80;;;;;;6265623;27;84438;-66
2020/12/01 15:08:53;;;;;;;25.50;13.35;;;24.50;31.60;;;;;;6264809;27;83360;-65
2020/12/01 15:11:54;;;;;;;23.95;12.68;;;24.50;31.10;;;;;;6265487;27;84105;-66
2020/12/01 15:14:55;;;;;;;21.80;12.65;;;24.40;30.80;;;;;;6256071;27;83541;-66
2020/12/01 15:17:55;;;;;;;27.25;13.70;;;24.40;31.10;;;;;;6270829;27;83549;-61
2020/12/01 15:20:56;;;;;;;29.15;14.20;;;24.40;30.70;;;;;;6257093;27;84428;-61
2020/12/01 15:23:57;;;;;;;32.13;14.90;;;24.30;30.70;;;;;;6269094;27;86803;-61
2020/12/01 15:26:57;;;;;;;28.52;14.10;;;24.40;31.00;;;;;;6271688;27;83503;-60
2020/12/01 15:29:58;;;;;;;33.67;14.85;;;24.30;31.10;;;;;;6272316;27;83521;-60
2020/12/01 15:32:59;;;;;;;35.08;14.90;;;24.30;31.00;;;;;;6244959;27;84404;-59
2020/12/01 15:36:00;;;;;;;35.55;16.30;;;24.30;30.80;;;;;;6265279;27;85124;-60
2020/12/01 15:39:01;;;;;;;35.00;17.42;;;24.30;30.70;;;;;;6264790;27;83179;-60
2020/12/01 15:42:01;;;;;;;36.65;17.52;;;24.30;30.80;;;;;;6268902;27;84481;-60
2020/12/01 15:45:02;;;;;;;34.58;18.58;;;24.20;31.40;;;;;;6260216;27;83243;-58
2020/12/01 15:48:02;;;;;;;36.17;19.08;;;24.20;30.40;;;;;;6267419;27;83120;-59
2020/12/01 15:51:03;;;;;;;35.38;19.73;;;24.20;30.30;;;;;;6270685;27;83501;-59
2020/12/01 15:54:04;;;;;;;40.47;20.90;;;24.20;30.20;;;;;;6268584;27;83510;-59
2020/12/01 15:57:04;;;;;;;44.42;22.58;;;24.20;30.30;;;;;;6267384;27;84978;-58
2020/12/01 16:00:05;;;;;;;38.60;22.55;;;24.20;30.00;;;;;;6253146;27;84307;-60
2020/12/01 16:03:12;;;;;;;42.28;22.67;;;24.20;30.20;;;;;;6263335;27;83193;-59